Startpagina
METAR-TAF:

METAR-TAF

Vliegvelden :

Győr, Hongarije

breedte: 47-37-28N, lengte: 017-48-49E, hoogte: 129 m

Actueel weer

Dit bericht is 24 minuten geleden gemaakt, om 17:45 UTC
Wind 10 kt uit het oostzuidoosten
Temperatuur 16°C
Vochtigheid 68%
Druk 1023 hPa
Zicht 10 km of meer
geen wolken onder 1500 m en geen cumulonimbus

METAR: LHPR 121745Z AUTO 12010KT CAVOK 16/10 Q1023 RMK BLU

Tijdstip: 19:09 (18:09 UTC)

Verwachting

Dit bericht is 54 minuten geleden gemaakt, om 17:15 UTC
Verwachting geldig van 12 om 18 UTC tot 13 om 03 UTC
Wind 5 kt uit het zuidoosten
Zicht 10 km of meer
geen wolken onder 1500 m en geen cumulonimbus
Wijzigt naar
van 12 om 21 UTC tot 12 om 24 UTC
Zicht: 3000 m
nevel, Ondiepe mist
Kans 30%
van 13 om 00 UTC tot 13 om 03 UTC
Zicht: 0350 m
op 200 ft
mist

TAF: LHPR 121715Z 1218/1303 13005KT CAVOK BECMG 1221/1224 3000 BR MIFG PROB30 1300/1303 0350 FG VV002

Waarnemingen en weersverwachtingen van meer dan 4000 vliegvelden (METAR en TAF).

De beschikbare stations zijn de gele en rode punten op de kaart.

Ga met uw muis naar het station om de naam te zien.

Klik dan om waarnemingen en weersverwachtingen te zien.

kaart wijzigen: klik op de groene knoppen met een zwart kruis om in te zoomen, op de groene knop met een streepje om uit te zoomen of op de groene pijlen voor aangrenzende kaarten.


METAR-TAF: